Time;durP1;ratioP1;P1;durP2;ratioP2;P2;SDS_P1;SDS_P2;PMS_P1;PMS_P2;Temp;Humidity;BMP_temperature;BMP_pressure;BME280_temperature;BME280_humidity;BME280_pressure;Samples;Min_cycle;Max_cycle;Signal;HPM_P1;HPM_P2
2021/05/30 00:00:05;;;;;;;15.70;12.20;;;;;;;;;;5102364;28;20834;-83
2021/05/30 00:02:31;;;;;;;15.23;12.03;;;;;;;;;;5108997;28;20471;-84
2021/05/30 00:04:58;;;;;;;15.47;12.33;;;;;;;;;;5088479;28;20928;-85
2021/05/30 00:07:25;;;;;;;14.13;11.50;;;;;;;;;;5093488;28;20442;-83
2021/05/30 00:09:53;;;;;;;16.50;11.50;;;;;;;;;;5084228;28;20462;-83
2021/05/30 00:12:20;;;;;;;15.30;11.03;;;;;;;;;;5080555;28;20952;-84
2021/05/30 00:14:47;;;;;;;14.20;11.90;;;;;;;;;;5089193;28;20963;-83
2021/05/30 00:17:15;;;;;;;14.83;12.00;;;;;;;;;;5089730;28;20469;-86
2021/05/30 00:19:42;;;;;;;18.17;12.40;;;;;;;;;;5085616;28;21019;-85
2021/05/30 00:22:09;;;;;;;15.73;12.17;;;;;;;;;;5091626;28;20952;-88
2021/05/30 00:24:36;;;;;;;14.70;12.30;;;;;;;;;;5085621;28;20443;-83
2021/05/30 00:27:02;;;;;;;15.57;12.50;;;;;;;;;;5077493;28;20451;-86
2021/05/30 00:29:29;;;;;;;15.70;12.40;;;;;;;;;;5087974;28;21003;-86
2021/05/30 00:31:57;;;;;;;18.10;12.30;;;;;;;;;;5090679;28;20435;-87
2021/05/30 00:34:24;;;;;;;15.23;12.00;;;;;;;;;;5083904;28;20443;-83
2021/05/30 00:36:51;;;;;;;16.50;13.03;;;;;;;;;;5091542;28;20459;-86
2021/05/30 00:39:17;;;;;;;15.23;11.57;;;;;;;;;;5089583;28;20512;-83
2021/05/30 00:41:44;;;;;;;13.57;11.70;;;;;;;;;;5074874;28;20483;-87
2021/05/30 00:44:26;;;;;;;13.80;10.60;;;;;;;;;;5085245;28;20987;-84
2021/05/30 00:46:53;;;;;;;16.40;13.00;;;;;;;;;;5090159;28;20464;-85
2021/05/30 00:49:21;;;;;;;16.30;12.30;;;;;;;;;;5087722;28;20481;-85
2021/05/30 00:51:48;;;;;;;14.13;11.87;;;;;;;;;;5100016;28;20463;-86
2021/05/30 00:54:15;;;;;;;15.30;13.10;;;;;;;;;;5094755;28;20908;-82
2021/05/30 00:56:42;;;;;;;15.40;11.80;;;;;;;;;;5083020;28;20512;-86
2021/05/30 00:59:09;;;;;;;14.60;12.80;;;;;;;;;;5093149;28;20463;-83
2021/05/30 01:01:36;;;;;;;15.80;12.43;;;;;;;;;;5093306;28;20445;-84
2021/05/30 01:04:03;;;;;;;17.63;12.97;;;;;;;;;;5087771;28;20486;-87
2021/05/30 01:06:31;;;;;;;18.50;12.77;;;;;;;;;;5093655;28;20439;-83
2021/05/30 01:08:59;;;;;;;16.40;14.10;;;;;;;;;;5089540;28;20467;-83
2021/05/30 01:11:26;;;;;;;17.20;12.63;;;;;;;;;;5090208;28;20473;-86
2021/05/30 01:13:54;;;;;;;16.70;13.53;;;;;;;;;;5086148;28;20846;-82
2021/05/30 01:16:21;;;;;;;14.30;12.63;;;;;;;;;;5094200;28;20916;-85
2021/05/30 01:18:48;;;;;;;16.87;13.03;;;;;;;;;;5092537;28;20552;-84
2021/05/30 01:21:15;;;;;;;17.07;13.40;;;;;;;;;;5086847;28;20897;-85
2021/05/30 01:23:43;;;;;;;17.40;14.10;;;;;;;;;;5090686;28;20482;-81
2021/05/30 01:26:10;;;;;;;15.80;13.27;;;;;;;;;;5089985;28;20505;-84
2021/05/30 01:28:37;;;;;;;16.23;12.33;;;;;;;;;;5095825;28;20811;-86
2021/05/30 01:31:10;;;;;;;16.97;12.90;;;;;;;;;;5095013;28;21022;-86
2021/05/30 01:33:37;;;;;;;14.77;11.80;;;;;;;;;;5094395;28;20455;-89
2021/05/30 01:36:03;;;;;;;16.37;12.00;;;;;;;;;;5095152;28;20463;-85
2021/05/30 01:38:30;;;;;;;17.50;13.27;;;;;;;;;;5097570;28;20474;-83
2021/05/30 01:40:58;;;;;;;24.23;12.00;;;;;;;;;;5116790;28;20443;-84
2021/05/30 01:43:25;;;;;;;17.77;13.93;;;;;;;;;;5105884;28;20497;-85
2021/05/30 01:45:52;;;;;;;14.20;12.47;;;;;;;;;;5089988;28;20484;-83
2021/05/30 01:48:22;;;;;;;15.20;12.70;;;;;;;;;;5088895;28;20465;-87
2021/05/30 01:50:49;;;;;;;14.03;12.10;;;;;;;;;;5088829;28;20939;-84
2021/05/30 01:53:16;;;;;;;17.37;12.37;;;;;;;;;;5093482;28;20837;-85
2021/05/30 01:56:55;;;;;;;17.43;11.77;;;;;;;;;;5089375;28;20489;-84
2021/05/30 01:58:43;;;;;;;14.53;12.00;;;;;;;;;;5080821;28;20464;-83
2021/05/30 02:01:11;;;;;;;18.47;13.27;;;;;;;;;;5114274;28;20588;-85
2021/05/30 02:03:39;;;;;;;16.57;12.00;;;;;;;;;;5115721;28;20967;-85
2021/05/30 02:06:06;;;;;;;14.70;12.90;;;;;;;;;;5091516;28;20827;-87
2021/05/30 02:08:33;;;;;;;16.03;12.87;;;;;;;;;;5082980;28;20569;-83
2021/05/30 02:11:00;;;;;;;17.90;12.63;;;;;;;;;;5080619;28;20499;-86
2021/05/30 02:13:27;;;;;;;19.27;12.40;;;;;;;;;;5093853;28;20439;-84
2021/05/30 02:15:54;;;;;;;17.50;12.70;;;;;;;;;;5093000;28;20447;-85
2021/05/30 02:18:21;;;;;;;13.70;11.90;;;;;;;;;;5082833;28;20680;-84
2021/05/30 02:20:51;;;;;;;17.77;13.60;;;;;;;;;;5085018;28;20467;-83
2021/05/30 02:23:18;;;;;;;18.67;13.27;;;;;;;;;;5082990;28;20479;-85
2021/05/30 02:25:45;;;;;;;16.80;13.23;;;;;;;;;;5081744;28;20450;-84
2021/05/30 02:28:12;;;;;;;14.93;11.90;;;;;;;;;;5092450;28;20439;-84
2021/05/30 02:30:39;;;;;;;16.40;12.87;;;;;;;;;;5087807;28;20871;-83
2021/05/30 02:33:06;;;;;;;17.33;13.27;;;;;;;;;;5091564;28;20473;-82
2021/05/30 02:35:33;;;;;;;18.77;13.10;;;;;;;;;;5091094;28;20452;-83
2021/05/30 02:38:00;;;;;;;17.70;13.10;;;;;;;;;;5081571;28;20447;-86
2021/05/30 02:40:27;;;;;;;16.80;12.17;;;;;;;;;;5090583;28;20462;-85
2021/05/30 02:42:54;;;;;;;17.80;12.70;;;;;;;;;;5092231;28;20486;-84
2021/05/30 02:45:20;;;;;;;16.87;13.77;;;;;;;;;;5085125;28;20454;-86
2021/05/30 02:47:47;;;;;;;18.70;14.77;;;;;;;;;;5113187;28;20445;-86
2021/05/30 02:50:15;;;;;;;17.67;13.47;;;;;;;;;;5088974;28;20468;-82
2021/05/30 02:52:42;;;;;;;17.00;13.87;;;;;;;;;;5082516;28;20512;-85
2021/05/30 02:55:09;;;;;;;18.70;13.53;;;;;;;;;;5091482;28;20488;-87
2021/05/30 02:57:36;;;;;;;19.67;13.97;;;;;;;;;;5089087;28;20455;-84
2021/05/30 03:00:03;;;;;;;19.97;14.40;;;;;;;;;;5081043;28;20467;-87
2021/05/30 03:02:30;;;;;;;18.67;13.17;;;;;;;;;;5079417;28;20917;-83
2021/05/30 03:04:56;;;;;;;18.30;13.50;;;;;;;;;;5086936;28;20451;-85
2021/05/30 03:07:25;;;;;;;18.77;13.37;;;;;;;;;;5090100;28;20440;-86
2021/05/30 03:09:52;;;;;;;17.20;13.37;;;;;;;;;;5084888;28;20963;-85
2021/05/30 03:12:19;;;;;;;20.30;14.40;;;;;;;;;;5091850;28;20446;-82
2021/05/30 03:14:45;;;;;;;20.63;13.93;;;;;;;;;;5092150;28;20459;-83
2021/05/30 03:17:12;;;;;;;15.73;13.00;;;;;;;;;;5087517;28;20865;-85
2021/05/30 03:19:39;;;;;;;19.20;13.20;;;;;;;;;;5094306;28;20561;-83
2021/05/30 03:22:06;;;;;;;14.67;12.63;;;;;;;;;;5086698;28;20459;-85
2021/05/30 03:24:34;;;;;;;19.13;13.80;;;;;;;;;;5087875;28;20482;-85
2021/05/30 03:27:00;;;;;;;17.33;13.43;;;;;;;;;;5086110;28;20859;-82
2021/05/30 03:29:27;;;;;;;18.53;12.93;;;;;;;;;;5089470;28;20448;-84
2021/05/30 03:31:54;;;;;;;17.63;13.13;;;;;;;;;;5090291;28;20866;-82
2021/05/30 03:34:21;;;;;;;18.43;14.07;;;;;;;;;;5091639;28;21016;-85
2021/05/30 03:36:51;;;;;;;21.00;13.00;;;;;;;;;;5091110;28;20443;-82
2021/05/30 03:39:23;;;;;;;18.10;14.07;;;;;;;;;;5087590;28;20554;-86
2021/05/30 03:41:54;;;;;;;19.80;14.63;;;;;;;;;;5093816;28;20444;-83
2021/05/30 03:44:21;;;;;;;20.70;13.50;;;;;;;;;;5089037;28;20487;-82
2021/05/30 03:46:47;;;;;;;18.30;14.47;;;;;;;;;;5088721;28;20451;-85
2021/05/30 03:49:14;;;;;;;21.23;14.27;;;;;;;;;;5087221;28;20455;-82
2021/05/30 03:51:41;;;;;;;21.67;13.23;;;;;;;;;;5083136;28;20456;-85
2021/05/30 03:54:08;;;;;;;22.17;14.63;;;;;;;;;;5090090;28;20801;-84
2021/05/30 03:56:36;;;;;;;19.53;14.20;;;;;;;;;;5090922;28;20458;-85
2021/05/30 03:59:03;;;;;;;16.10;13.80;;;;;;;;;;5095868;28;20476;-85
2021/05/30 04:01:30;;;;;;;18.60;13.60;;;;;;;;;;5093063;28;20526;-83
2021/05/30 04:03:57;;;;;;;19.23;14.07;;;;;;;;;;5086362;28;20486;-80
2021/05/30 04:06:24;;;;;;;20.40;13.30;;;;;;;;;;5090855;28;20810;-86
2021/05/30 04:08:51;;;;;;;16.30;13.10;;;;;;;;;;5089525;28;20467;-87
2021/05/30 04:11:18;;;;;;;18.87;13.63;;;;;;;;;;5086463;28;20456;-86
2021/05/30 04:13:46;;;;;;;19.00;13.30;;;;;;;;;;5091991;28;20508;-82
2021/05/30 04:16:13;;;;;;;17.87;14.40;;;;;;;;;;5088016;28;20458;-85
2021/05/30 04:18:40;;;;;;;19.00;13.63;;;;;;;;;;5089342;28;20549;-86
2021/05/30 04:21:07;;;;;;;18.20;13.33;;;;;;;;;;5088800;28;20916;-85
2021/05/30 04:23:34;;;;;;;18.33;12.93;;;;;;;;;;5081147;28;21049;-83
2021/05/30 04:26:01;;;;;;;20.20;14.87;;;;;;;;;;5094523;28;20443;-84
2021/05/30 04:28:27;;;;;;;18.93;14.07;;;;;;;;;;5086210;28;20475;-85
2021/05/30 04:30:54;;;;;;;20.80;15.03;;;;;;;;;;5092185;28;20558;-83
2021/05/30 04:33:22;;;;;;;15.67;12.77;;;;;;;;;;5087824;28;20451;-86
2021/05/30 04:35:50;;;;;;;14.23;12.40;;;;;;;;;;5093334;28;20451;-83
2021/05/30 04:38:17;;;;;;;17.63;13.30;;;;;;;;;;5097440;28;20447;-87
2021/05/30 04:40:44;;;;;;;16.53;13.57;;;;;;;;;;5092778;28;20490;-83
2021/05/30 04:43:11;;;;;;;17.10;13.00;;;;;;;;;;5090085;28;20490;-83
2021/05/30 04:45:38;;;;;;;14.43;11.60;;;;;;;;;;5091524;28;20435;-84
2021/05/30 04:48:05;;;;;;;13.73;12.20;;;;;;;;;;5085542;28;20455;-86
2021/05/30 04:50:33;;;;;;;18.17;12.90;;;;;;;;;;5084558;28;20457;-86
2021/05/30 04:53:00;;;;;;;15.73;12.10;;;;;;;;;;5094603;28;20489;-86
2021/05/30 04:55:27;;;;;;;14.80;11.60;;;;;;;;;;5094827;28;20787;-85
2021/05/30 04:57:54;;;;;;;16.93;12.30;;;;;;;;;;5084261;28;20452;-85
2021/05/30 05:00:21;;;;;;;12.87;10.37;;;;;;;;;;5092422;28;20454;-86
2021/05/30 05:02:48;;;;;;;13.20;11.47;;;;;;;;;;5094460;28;20483;-88
2021/05/30 05:05:15;;;;;;;12.03;10.83;;;;;;;;;;5093343;28;20447;-83
2021/05/30 05:07:44;;;;;;;13.60;11.60;;;;;;;;;;5097108;28;20528;-85
2021/05/30 05:10:11;;;;;;;11.67;10.20;;;;;;;;;;5091393;28;20480;-83
2021/05/30 05:12:38;;;;;;;12.90;10.70;;;;;;;;;;5090400;28;20466;-85
2021/05/30 05:15:06;;;;;;;14.43;10.40;;;;;;;;;;5090974;28;20436;-84
2021/05/30 05:17:32;;;;;;;11.83;9.50;;;;;;;;;;5087466;28;20961;-83
2021/05/30 05:19:59;;;;;;;10.17;9.20;;;;;;;;;;5082521;28;20991;-83
2021/05/30 05:22:26;;;;;;;10.20;9.20;;;;;;;;;;5111521;28;20417;-85
2021/05/30 05:24:54;;;;;;;12.37;10.37;;;;;;;;;;5110494;28;20521;-86
2021/05/30 05:27:21;;;;;;;12.53;9.50;;;;;;;;;;5085857;28;20464;-86
2021/05/30 05:29:47;;;;;;;11.00;8.40;;;;;;;;;;5085924;28;20450;-87
2021/05/30 05:32:14;;;;;;;9.93;8.90;;;;;;;;;;5087351;28;20453;-84
2021/05/30 05:34:41;;;;;;;10.57;9.47;;;;;;;;;;5101436;28;20447;-84
2021/05/30 05:37:08;;;;;;;12.70;8.67;;;;;;;;;;5086000;28;20432;-83
2021/05/30 05:39:35;;;;;;;10.60;8.90;;;;;;;;;;5092875;28;20805;-84
2021/05/30 05:42:03;;;;;;;9.80;8.80;;;;;;;;;;5092712;28;20415;-84
2021/05/30 05:44:35;;;;;;;10.50;9.47;;;;;;;;;;5088194;28;20560;-84
2021/05/30 05:47:04;;;;;;;8.70;7.90;;;;;;;;;;5093790;28;20474;-85
2021/05/30 05:49:33;;;;;;;8.53;7.83;;;;;;;;;;5091511;28;20583;-84
2021/05/30 05:51:59;;;;;;;9.37;7.80;;;;;;;;;;5091818;28;20511;-83
2021/05/30 05:54:26;;;;;;;11.03;7.77;;;;;;;;;;5095833;28;20439;-83
2021/05/30 05:56:53;;;;;;;7.70;6.90;;;;;;;;;;5085069;28;20475;-84
2021/05/30 05:59:21;;;;;;;8.17;7.07;;;;;;;;;;5089540;28;20820;-86
2021/05/30 06:01:48;;;;;;;9.63;7.60;;;;;;;;;;5092877;28;20465;-85
2021/05/30 06:04:15;;;;;;;6.90;6.20;;;;;;;;;;5091610;28;20839;-85
2021/05/30 06:06:41;;;;;;;6.73;6.03;;;;;;;;;;5093133;28;20443;-84
2021/05/30 06:09:08;;;;;;;7.73;5.80;;;;;;;;;;5085790;28;20964;-87
2021/05/30 06:11:38;;;;;;;7.40;6.13;;;;;;;;;;5083588;28;20843;-83
2021/05/30 06:14:05;;;;;;;7.77;6.03;;;;;;;;;;5088292;28;20432;-83
2021/05/30 06:16:33;;;;;;;7.33;6.70;;;;;;;;;;5088793;28;20456;-84
2021/05/30 06:19:00;;;;;;;6.40;5.80;;;;;;;;;;5107749;28;20466;-87
2021/05/30 06:21:27;;;;;;;8.10;6.30;;;;;;;;;;5100384;28;20427;-87
2021/05/30 06:23:54;;;;;;;7.53;6.77;;;;;;;;;;5081999;28;20490;-85
2021/05/30 06:26:21;;;;;;;6.70;5.83;;;;;;;;;;5075565;28;20554;-85
2021/05/30 06:28:48;;;;;;;8.03;6.07;;;;;;;;;;5079692;28;20533;-81
2021/05/30 06:31:14;;;;;;;7.80;6.20;;;;;;;;;;5085513;28;20452;-85
2021/05/30 06:33:42;;;;;;;9.40;7.00;;;;;;;;;;5070750;28;20462;-81
2021/05/30 06:36:09;;;;;;;7.00;6.30;;;;;;;;;;5089258;28;21033;-84
2021/05/30 06:38:39;;;;;;;8.47;6.37;;;;;;;;;;5109515;28;20817;-85
2021/05/30 06:41:05;;;;;;;6.73;5.77;;;;;;;;;;5090146;28;20459;-85
2021/05/30 06:43:41;;;;;;;8.20;5.87;;;;;;;;;;5088674;28;20528;-81
2021/05/30 06:46:07;;;;;;;6.73;6.10;;;;;;;;;;5090819;28;20462;-86
2021/05/30 06:48:34;;;;;;;6.67;6.07;;;;;;;;;;5095556;28;20459;-89
2021/05/30 06:53:46;;;;;;;6.63;6.03;;;;;;;;;;5087334;28;20452;-85
2021/05/30 06:56:21;;;;;;;5.33;4.83;;;;;;;;;;5093319;28;20452;-84
2021/05/30 06:58:48;;;;;;;6.23;5.53;;;;;;;;;;5087888;28;20473;-82
2021/05/30 07:01:16;;;;;;;6.07;5.57;;;;;;;;;;5090930;28;20439;-80
2021/05/30 07:03:43;;;;;;;6.40;5.80;;;;;;;;;;5078292;28;20490;-86
2021/05/30 07:06:10;;;;;;;6.07;5.57;;;;;;;;;;5087989;28;20458;-85
2021/05/30 07:08:37;;;;;;;6.60;6.10;;;;;;;;;;5092852;28;20456;-83
2021/05/30 07:11:04;;;;;;;6.57;5.47;;;;;;;;;;5084292;28;20455;-87
2021/05/30 07:13:31;;;;;;;6.70;5.57;;;;;;;;;;5089426;28;20434;-83
2021/05/30 07:15:58;;;;;;;5.63;5.10;;;;;;;;;;5090225;28;20454;-85
2021/05/30 07:18:25;;;;;;;6.63;6.03;;;;;;;;;;5092673;28;20432;-86
2021/05/30 07:20:54;;;;;;;5.87;5.27;;;;;;;;;;5097922;28;20445;-91
2021/05/30 07:23:24;;;;;;;6.00;5.50;;;;;;;;;;5089819;28;20479;-81
2021/05/30 07:25:52;;;;;;;5.90;5.30;;;;;;;;;;5089937;28;20504;-83
2021/05/30 07:28:19;;;;;;;5.70;5.00;;;;;;;;;;5089451;28;20451;-84
2021/05/30 07:30:46;;;;;;;6.00;5.50;;;;;;;;;;5081415;28;20553;-87
2021/05/30 07:33:12;;;;;;;5.33;4.90;;;;;;;;;;5084623;28;20447;-85
2021/05/30 07:35:40;;;;;;;5.33;4.83;;;;;;;;;;5088033;28;20439;-86
2021/05/30 07:38:08;;;;;;;5.77;5.27;;;;;;;;;;5089179;28;20431;-85
2021/05/30 07:40:42;;;;;;;7.43;4.63;;;;;;;;;;5086187;28;20462;-89
2021/05/30 07:43:09;;;;;;;5.87;5.23;;;;;;;;;;5091802;28;20500;-87
2021/05/30 07:48:31;;;;;;;5.23;4.67;;;;;;;;;;5028398;22;22780;-87
2021/05/30 07:51:01;;;;;;;5.27;4.67;;;;;;;;;;5027977;28;20978;-87
2021/05/30 07:53:28;;;;;;;4.57;4.10;;;;;;;;;;5015681;28;20457;-86
2021/05/30 07:58:37;;;;;;;4.87;4.37;;;;;;;;;;5007539;28;20510;-85
2021/05/30 08:01:08;;;;;;;5.90;4.73;;;;;;;;;;5013324;28;20533;-89
2021/05/30 08:03:35;;;;;;;4.37;4.00;;;;;;;;;;5028395;28;20474;-86
2021/05/30 08:06:05;;;;;;;4.80;4.40;;;;;;;;;;5028107;28;20967;-88
2021/05/30 08:08:32;;;;;;;4.50;4.10;;;;;;;;;;5036504;28;20872;-88
2021/05/30 08:11:00;;;;;;;4.97;4.47;;;;;;;;;;5015166;28;20478;-84
2021/05/30 08:13:27;;;;;;;4.27;3.90;;;;;;;;;;5021224;28;20442;-85
2021/05/30 08:15:54;;;;;;;4.40;3.70;;;;;;;;;;5029564;28;20446;-83
2021/05/30 08:18:20;;;;;;;4.40;4.00;;;;;;;;;;5015591;28;20454;-85
2021/05/30 08:20:47;;;;;;;5.87;3.80;;;;;;;;;;5025920;28;20465;-88
2021/05/30 08:23:18;;;;;;;4.43;4.10;;;;;;;;;;5031391;28;20576;-85
2021/05/30 08:25:45;;;;;;;4.30;3.90;;;;;;;;;;5022943;28;20465;-85
2021/05/30 08:28:13;;;;;;;4.77;4.20;;;;;;;;;;5033756;28;20445;-83
2021/05/30 08:30:40;;;;;;;4.83;3.83;;;;;;;;;;5029768;28;20438;-88
2021/05/30 08:33:07;;;;;;;5.50;3.90;;;;;;;;;;5021857;28;20451;-86
2021/05/30 08:35:34;;;;;;;4.47;3.20;;;;;;;;;;5018819;28;20726;-84
2021/05/30 08:38:01;;;;;;;4.20;3.83;;;;;;;;;;5026504;28;20855;-87
2021/05/30 08:40:28;;;;;;;3.83;3.43;;;;;;;;;;5019789;28;20535;-82
2021/05/30 08:42:55;;;;;;;4.20;3.80;;;;;;;;;;5019931;28;21014;-86
2021/05/30 08:45:24;;;;;;;4.40;4.00;;;;;;;;;;5022793;28;20825;-81
2021/05/30 08:48:08;;;;;;;4.37;3.97;;;;;;;;;;5020502;28;20431;-91
2021/05/30 08:56:38;;;;;;;4.60;3.47;;;;;;;;;;4951485;28;20472;-85
2021/05/30 08:59:28;;;;;;;3.90;3.60;;;;;;;;;;5008778;28;20486;-85
2021/05/30 09:01:56;;;;;;;4.77;3.50;;;;;;;;;;5017487;28;20462;-88
2021/05/30 09:04:32;;;;;;;3.87;3.50;;;;;;;;;;4999239;28;20492;-88
2021/05/30 09:07:03;;;;;;;3.90;3.60;;;;;;;;;;5012965;28;20458;-87
2021/05/30 09:09:40;;;;;;;4.50;3.60;;;;;;;;;;5027506;28;20482;-88
2021/05/30 09:12:11;;;;;;;4.43;3.10;;;;;;;;;;5030219;28;20438;-88
2021/05/30 09:14:44;;;;;;;3.90;3.60;;;;;;;;;;5008637;28;20497;-87
2021/05/30 09:17:14;;;;;;;3.47;3.17;;;;;;;;;;5034938;28;20485;-87
2021/05/30 09:19:43;;;;;;;3.47;3.17;;;;;;;;;;5035784;28;20461;-89
2021/05/30 09:22:25;;;;;;;3.70;3.40;;;;;;;;;;5021898;28;20542;-86
2021/05/30 09:25:06;;;;;;;3.17;2.87;;;;;;;;;;5029425;28;20488;-90
2021/05/30 09:27:34;;;;;;;3.03;2.80;;;;;;;;;;5005156;28;20447;-87
2021/05/30 09:30:09;;;;;;;3.67;3.37;;;;;;;;;;5016086;28;20481;-89
2021/05/30 09:32:52;;;;;;;3.17;2.97;;;;;;;;;;5000509;28;20863;-87
2021/05/30 09:35:19;;;;;;;3.20;2.90;;;;;;;;;;5017974;28;20443;-86
2021/05/30 09:37:46;;;;;;;3.20;2.90;;;;;;;;;;5018881;28;20887;-86
2021/05/30 09:40:13;;;;;;;3.43;3.13;;;;;;;;;;5031535;28;20478;-85
2021/05/30 09:42:40;;;;;;;4.93;3.20;;;;;;;;;;5039430;28;20449;-88
2021/05/30 09:45:09;;;;;;;3.80;3.17;;;;;;;;;;5027697;28;20497;-87
2021/05/30 09:47:36;;;;;;;3.00;2.80;;;;;;;;;;5004240;28;20443;-87
2021/05/30 09:50:04;;;;;;;4.00;3.50;;;;;;;;;;5018911;28;20497;-88
2021/05/30 09:52:38;;;;;;;3.07;2.80;;;;;;;;;;5022588;28;20459;-87
2021/05/30 09:55:13;;;;;;;3.43;2.90;;;;;;;;;;5016958;28;20554;-87
2021/05/30 09:57:40;;;;;;;3.40;3.00;;;;;;;;;;5024748;28;20453;-90
2021/05/30 10:00:20;;;;;;;3.13;2.80;;;;;;;;;;5014883;28;20560;-86
2021/05/30 10:02:48;;;;;;;3.87;3.33;;;;;;;;;;5016186;28;20490;-85
2021/05/30 10:05:15;;;;;;;3.50;3.17;;;;;;;;;;5017061;28;20463;-86
2021/05/30 10:07:42;;;;;;;2.97;2.77;;;;;;;;;;5013097;28;20530;-86
2021/05/30 10:10:12;;;;;;;2.93;2.73;;;;;;;;;;5015363;28;20535;-89
2021/05/30 10:12:40;;;;;;;3.37;3.07;;;;;;;;;;5018193;28;20498;-90
2021/05/30 10:15:07;;;;;;;3.50;2.93;;;;;;;;;;5013668;28;20470;-88
2021/05/30 10:17:34;;;;;;;4.33;3.93;;;;;;;;;;5014314;28;20549;-85
2021/05/30 10:20:02;;;;;;;3.93;3.53;;;;;;;;;;5015505;28;20477;-86
2021/05/30 10:22:30;;;;;;;4.20;3.73;;;;;;;;;;5031942;28;20446;-86
2021/05/30 10:24:57;;;;;;;3.30;3.00;;;;;;;;;;5016207;28;20513;-86
2021/05/30 10:27:25;;;;;;;3.73;3.23;;;;;;;;;;5013421;28;20876;-88
2021/05/30 10:30:06;;;;;;;3.30;3.00;;;;;;;;;;5016885;28;20507;-86
2021/05/30 10:32:34;;;;;;;3.47;3.17;;;;;;;;;;5012127;28;20558;-89
2021/05/30 10:35:15;;;;;;;3.30;2.73;;;;;;;;;;5020376;28;20449;-87
2021/05/30 10:37:44;;;;;;;3.00;2.70;;;;;;;;;;5000007;28;20956;-89
2021/05/30 10:40:25;;;;;;;5.10;3.03;;;;;;;;;;5001648;28;20474;-88
2021/05/30 10:43:07;;;;;;;3.83;3.07;;;;;;;;;;4997887;28;20459;-88
2021/05/30 10:45:34;;;;;;;3.37;2.83;;;;;;;;;;4994949;28;20939;-88
2021/05/30 10:48:13;;;;;;;2.77;2.57;;;;;;;;;;4995895;28;20455;-88
2021/05/30 10:50:48;;;;;;;3.63;3.03;;;;;;;;;;5027949;28;20485;-85
2021/05/30 10:53:30;;;;;;;3.13;2.93;;;;;;;;;;5024129;28;20460;-86
2021/05/30 10:56:12;;;;;;;2.90;2.70;;;;;;;;;;5014204;28;20464;-89
2021/05/30 10:58:38;;;;;;;4.23;3.10;;;;;;;;;;4999936;28;20486;-87
2021/05/30 11:01:05;;;;;;;3.90;2.90;;;;;;;;;;5015061;28;20978;-89
2021/05/30 11:03:32;;;;;;;4.20;2.90;;;;;;;;;;5028049;28;20487;-89
2021/05/30 11:05:59;;;;;;;3.40;3.10;;;;;;;;;;5011657;28;20821;-89
2021/05/30 11:08:41;;;;;;;3.83;3.50;;;;;;;;;;5013793;28;20454;-87
2021/05/30 11:11:21;;;;;;;2.83;2.63;;;;;;;;;;5007648;28;20469;-86
2021/05/30 11:16:14;;;;;;;4.10;3.37;;;;;;;;;;5022010;28;20579;-88
2021/05/30 11:18:41;;;;;;;3.30;3.00;;;;;;;;;;5025060;28;20215;-88
2021/05/30 11:21:08;;;;;;;3.67;3.27;;;;;;;;;;5016661;28;20916;-88
2021/05/30 11:23:35;;;;;;;3.37;2.70;;;;;;;;;;5011997;28;20551;-88
2021/05/30 11:26:02;;;;;;;3.20;2.90;;;;;;;;;;5013105;28;20471;-85
2021/05/30 11:28:30;;;;;;;2.93;2.73;;;;;;;;;;5013700;28;20568;-90
2021/05/30 11:30:59;;;;;;;3.13;2.77;;;;;;;;;;5014590;28;20435;-91
2021/05/30 11:33:40;;;;;;;3.30;3.00;;;;;;;;;;5014534;28;20466;-87
2021/05/30 11:36:07;;;;;;;3.33;3.03;;;;;;;;;;4994572;28;20451;-87
2021/05/30 11:38:35;;;;;;;3.60;3.00;;;;;;;;;;5012931;28;20466;-90
2021/05/30 11:41:17;;;;;;;3.47;3.17;;;;;;;;;;5015621;28;20462;-90
2021/05/30 11:43:58;;;;;;;3.97;3.00;;;;;;;;;;5001911;28;20490;-86
2021/05/30 11:46:27;;;;;;;3.50;3.20;;;;;;;;;;5001239;28;20964;-89
2021/05/30 11:49:03;;;;;;;3.43;2.90;;;;;;;;;;5012595;28;20486;-91
2021/05/30 11:51:45;;;;;;;3.13;2.83;;;;;;;;;;5013925;28;20485;-88
2021/05/30 11:54:12;;;;;;;3.37;3.10;;;;;;;;;;5006762;28;20458;-87
2021/05/30 11:56:39;;;;;;;3.37;2.90;;;;;;;;;;5012758;28;20455;-88
2021/05/30 11:59:06;;;;;;;3.47;3.03;;;;;;;;;;5011882;28;20473;-88
2021/05/30 12:01:47;;;;;;;3.50;3.20;;;;;;;;;;5015819;28;20465;-86
2021/05/30 12:04:29;;;;;;;2.90;2.70;;;;;;;;;;4993758;28;20479;-86
2021/05/30 12:06:57;;;;;;;5.27;3.00;;;;;;;;;;5012256;28;20462;-83
2021/05/30 12:09:24;;;;;;;4.27;3.17;;;;;;;;;;5024601;28;20554;-83
2021/05/30 12:11:57;;;;;;;3.20;2.90;;;;;;;;;;5017066;28;21165;-83
2021/05/30 12:14:24;;;;;;;3.27;2.97;;;;;;;;;;5017387;28;20465;-86
2021/05/30 12:16:50;;;;;;;4.77;3.03;;;;;;;;;;5011112;28;20443;-84
2021/05/30 12:19:17;;;;;;;3.10;2.77;;;;;;;;;;5010172;28;20459;-83
2021/05/30 12:21:45;;;;;;;3.60;3.20;;;;;;;;;;5018023;28;20522;-83
2021/05/30 12:24:14;;;;;;;4.27;3.03;;;;;;;;;;5014852;28;20498;-84
2021/05/30 12:26:42;;;;;;;4.47;3.07;;;;;;;;;;5014157;28;20945;-84
2021/05/30 12:29:09;;;;;;;3.03;2.73;;;;;;;;;;5014555;28;20485;-82
2021/05/30 12:31:36;;;;;;;3.37;3.00;;;;;;;;;;5011711;28;20465;-88
2021/05/30 12:34:04;;;;;;;3.10;2.80;;;;;;;;;;5019826;28;21009;-87
2021/05/30 12:36:32;;;;;;;2.83;2.63;;;;;;;;;;5018886;28;20517;-88
2021/05/30 12:39:00;;;;;;;3.33;3.03;;;;;;;;;;5015013;28;20536;-84
2021/05/30 12:41:31;;;;;;;3.17;2.87;;;;;;;;;;5027222;28;20990;-85
2021/05/30 12:44:04;;;;;;;3.10;2.83;;;;;;;;;;5010894;28;20478;-85
2021/05/30 12:46:31;;;;;;;3.00;2.70;;;;;;;;;;4998996;28;20644;-89
2021/05/30 12:49:09;;;;;;;4.23;3.10;;;;;;;;;;5015034;28;20477;-87
2021/05/30 12:51:37;;;;;;;3.93;3.10;;;;;;;;;;5017590;28;20872;-87
2021/05/30 12:54:16;;;;;;;4.37;2.90;;;;;;;;;;5016465;28;20465;-87
2021/05/30 12:56:47;;;;;;;3.30;3.00;;;;;;;;;;5002027;28;20935;-85
2021/05/30 12:59:14;;;;;;;2.97;2.77;;;;;;;;;;5032157;28;20497;-86
2021/05/30 13:01:42;;;;;;;3.10;2.80;;;;;;;;;;5015447;28;20465;-88
2021/05/30 13:04:24;;;;;;;4.60;3.40;;;;;;;;;;5029322;28;20892;-86
2021/05/30 13:06:55;;;;;;;3.07;2.77;;;;;;;;;;5001475;28;20458;-88
2021/05/30 13:09:21;;;;;;;6.70;2.83;;;;;;;;;;5025310;28;20470;-86
2021/05/30 13:11:49;;;;;;;3.83;3.27;;;;;;;;;;5021291;28;20505;-91
2021/05/30 13:14:28;;;;;;;4.83;3.13;;;;;;;;;;5021648;28;20449;-88
2021/05/30 13:17:11;;;;;;;3.10;2.80;;;;;;;;;;5028664;28;20511;-89
2021/05/30 13:26:29;;;;;;;;;;;;;;;;;;;;;
2021/05/30 13:28:57;;;;;;;3.60;2.70;;;;;;;;;;4973204;28;20997;-90
2021/05/30 13:31:33;;;;;;;3.80;3.30;;;;;;;;;;5020096;28;20562;-92
2021/05/30 13:34:16;;;;;;;3.73;3.13;;;;;;;;;;5022779;28;20533;-93
2021/05/30 13:36:43;;;;;;;3.40;2.93;;;;;;;;;;5022512;28;20995;-94
2021/05/30 13:39:10;;;;;;;6.60;2.90;;;;;;;;;;5024603;28;20501;-92
2021/05/30 13:41:40;;;;;;;3.23;2.93;;;;;;;;;;5034919;28;20438;-94
2021/05/30 13:44:11;;;;;;;3.17;2.87;;;;;;;;;;5034471;28;20493;-91
2021/05/30 13:46:38;;;;;;;3.13;2.83;;;;;;;;;;5022791;28;20901;-88
2021/05/30 13:49:05;;;;;;;3.40;3.10;;;;;;;;;;5031333;28;21017;-86
2021/05/30 13:51:31;;;;;;;2.97;2.70;;;;;;;;;;5036183;28;20828;-89
2021/05/30 13:54:00;;;;;;;3.80;3.40;;;;;;;;;;5034994;28;20552;-90
2021/05/30 13:56:27;;;;;;;3.33;3.03;;;;;;;;;;5029192;28;20887;-87
2021/05/30 13:58:54;;;;;;;3.40;3.10;;;;;;;;;;5034550;28;20479;-93
2021/05/30 14:01:24;;;;;;;4.83;3.00;;;;;;;;;;5033816;28;20552;-88
2021/05/30 14:03:51;;;;;;;3.50;3.00;;;;;;;;;;5029498;28;21002;-80
2021/05/30 14:06:18;;;;;;;2.90;2.70;;;;;;;;;;5026288;28;20462;-83
2021/05/30 14:08:45;;;;;;;3.00;2.70;;;;;;;;;;5033450;28;20477;-86
2021/05/30 14:11:12;;;;;;;3.40;3.10;;;;;;;;;;5033507;28;20468;-83
2021/05/30 14:13:41;;;;;;;5.67;2.77;;;;;;;;;;5035107;28;20452;-83
2021/05/30 14:16:08;;;;;;;3.27;2.97;;;;;;;;;;5033564;28;20469;-85
2021/05/30 14:18:36;;;;;;;4.40;3.23;;;;;;;;;;5017182;28;20481;-80
2021/05/30 14:21:03;;;;;;;3.77;3.37;;;;;;;;;;5018466;28;20509;-81
2021/05/30 14:23:30;;;;;;;3.67;3.37;;;;;;;;;;5031877;28;20447;-81
2021/05/30 14:25:57;;;;;;;3.10;2.80;;;;;;;;;;5026343;28;21155;-79
2021/05/30 14:28:24;;;;;;;3.10;2.80;;;;;;;;;;5024000;28;20465;-80
2021/05/30 14:30:52;;;;;;;3.20;2.83;;;;;;;;;;5027587;28;20481;-81
2021/05/30 14:33:18;;;;;;;3.03;2.77;;;;;;;;;;5023043;28;20481;-81
2021/05/30 14:35:46;;;;;;;3.07;2.77;;;;;;;;;;5018056;28;20954;-81
2021/05/30 14:38:13;;;;;;;3.87;3.27;;;;;;;;;;5021238;28;20434;-81
2021/05/30 14:40:40;;;;;;;3.60;3.27;;;;;;;;;;5022996;28;21147;-85
2021/05/30 14:43:07;;;;;;;3.77;2.87;;;;;;;;;;5014762;28;20446;-86
2021/05/30 14:45:34;;;;;;;3.20;3.00;;;;;;;;;;5030350;28;20542;-85
2021/05/30 14:48:01;;;;;;;5.10;3.33;;;;;;;;;;5020864;28;20465;-86
2021/05/30 14:50:28;;;;;;;3.30;3.00;;;;;;;;;;5023707;28;20473;-87
2021/05/30 14:52:55;;;;;;;4.07;3.03;;;;;;;;;;5021686;28;21038;-87
2021/05/30 14:55:25;;;;;;;2.83;2.63;;;;;;;;;;5031914;28;20452;-85
2021/05/30 14:57:51;;;;;;;4.30;3.63;;;;;;;;;;5028140;28;20878;-86
2021/05/30 15:00:18;;;;;;;4.50;3.50;;;;;;;;;;5018136;28;20474;-86
2021/05/30 15:02:45;;;;;;;3.77;3.47;;;;;;;;;;5030556;28;20461;-83
2021/05/30 15:05:12;;;;;;;3.27;2.97;;;;;;;;;;5032710;28;20478;-84